AAL837 KMIA-MUHA
Flight info
| Callsign | AAL837 |
|---|---|
| Flight time | 0h 50m |
| Altitude | 30000 |
| Route | GLADZ4 LULLS Y196 CANOA ENTRY5 |
| Aircraft | B738/M-SDE2E3FGHIRWXY/LB1 |
Departure
| Time | 2026-04-30 19:25 |
|---|---|
| Airport | Miami International Airport (KMIA) |
Arrival
| Time | 2026-04-30 20:15 |
|---|---|
| Airport | José Martí International Airport (MUHA) |
| Time | Latitude | Longitude | Altitude | Speed | Heading |
|---|---|---|---|---|---|
| 2026-04-30 18:50 | 25.79731 | -80.28258 | 14 ft | 0 kts | 357° |
| 2026-04-30 19:12 | 25.79723 | -80.28258 | 16 ft | 4 kts | 357° |
| 2026-04-30 19:12 | 25.79700 | -80.28257 | 14 ft | 4 kts | 356° |
| 2026-04-30 19:13 | 25.79655 | -80.28231 | 14 ft | 4 kts | 300° |
| 2026-04-30 19:13 | 25.79649 | -80.28218 | 14 ft | 0 kts | 296° |
| 2026-04-30 19:16 | 25.79650 | -80.28219 | 14 ft | 1 kts | 296° |
| 2026-04-30 19:16 | 25.79657 | -80.28236 | 14 ft | 5 kts | 295° |
| 2026-04-30 19:16 | 25.79673 | -80.28369 | 14 ft | 10 kts | 267° |
| 2026-04-30 19:17 | 25.79670 | -80.28445 | 14 ft | 10 kts | 269° |
| 2026-04-30 19:17 | 25.79652 | -80.28590 | 14 ft | 9 kts | 264° |
| 2026-04-30 19:17 | 25.79648 | -80.28660 | 16 ft | 9 kts | 264° |
| 2026-04-30 19:18 | 25.79642 | -80.28729 | 14 ft | 4 kts | 267° |
| 2026-04-30 19:18 | 25.79642 | -80.28733 | 14 ft | 1 kts | 268° |
| 2026-04-30 19:18 | 25.79643 | -80.28771 | 14 ft | 10 kts | 276° |
| 2026-04-30 19:19 | 25.79704 | -80.28815 | 15 ft | 12 kts | 355° |
| 2026-04-30 19:19 | 25.79789 | -80.28818 | 15 ft | 12 kts | 357° |
| 2026-04-30 19:19 | 25.79952 | -80.28827 | 15 ft | 12 kts | 358° |
| 2026-04-30 19:20 | 25.80011 | -80.28871 | 15 ft | 11 kts | 284° |
| 2026-04-30 19:20 | 25.80011 | -80.28956 | 16 ft | 11 kts | 265° |
| 2026-04-30 19:20 | 25.80003 | -80.29119 | 15 ft | 10 kts | 267° |
| 2026-04-30 19:21 | 25.80000 | -80.29197 | 15 ft | 10 kts | 268° |
| 2026-04-30 19:21 | 25.79991 | -80.29401 | 14 ft | 19 kts | 268° |
| 2026-04-30 19:22 | 25.79979 | -80.29703 | 13 ft | 19 kts | 267° |
| 2026-04-30 19:22 | 25.79974 | -80.29953 | 12 ft | 0 kts | 282° |
| 2026-04-30 19:23 | 25.80021 | -80.30113 | 13 ft | 18 kts | 309° |
| 2026-04-30 19:24 | 25.80082 | -80.29882 | 12 ft | 46 kts | 87° |
| 2026-04-30 19:24 | 25.80108 | -80.29268 | 16 ft | 111 kts | 87° |
| 2026-04-30 19:24 | 25.80248 | -80.26913 | 478 ft | 170 kts | 89° |
| 2026-04-30 19:25 | 25.80444 | -80.22695 | 1563 ft | 210 kts | 90° |
| 2026-04-30 19:26 | 25.80574 | -80.19063 | 2089 ft | 257 kts | 84° |
| 2026-04-30 19:26 | 25.82819 | -80.16029 | 3352 ft | 275 kts | 15° |
| 2026-04-30 19:26 | 25.84712 | -80.15798 | 4082 ft | 275 kts | 0° |
| 2026-04-30 19:27 | 25.88569 | -80.15718 | 5533 ft | 280 kts | 359° |
| 2026-04-30 19:27 | 25.92344 | -80.16678 | 7038 ft | 282 kts | 340° |
| 2026-04-30 19:28 | 25.94223 | -80.17369 | 7677 ft | 286 kts | 341° |
| 2026-04-30 19:28 | 25.97882 | -80.19149 | 9002 ft | 292 kts | 314° |
| 2026-04-30 19:29 | 25.99403 | -80.23184 | 10402 ft | 294 kts | 277° |
| 2026-04-30 19:29 | 25.99660 | -80.25520 | 10600 ft | 315 kts | 277° |
| 2026-04-30 19:30 | 25.99797 | -80.33405 | 11586 ft | 354 kts | 270° |
| 2026-04-30 19:30 | 25.99767 | -80.38867 | 13027 ft | 354 kts | 271° |
| 2026-04-30 19:31 | 25.98759 | -80.44251 | 14213 ft | 370 kts | 242° |
| 2026-04-30 19:31 | 25.97248 | -80.46587 | 14869 ft | 374 kts | 235° |
| 2026-04-30 19:31 | 25.93948 | -80.51167 | 15954 ft | 383 kts | 234° |
| 2026-04-30 19:32 | 25.92279 | -80.53475 | 15975 ft | 384 kts | 234° |
| 2026-04-30 19:32 | 25.90617 | -80.55794 | 15987 ft | 383 kts | 234° |
| 2026-04-30 19:32 | 25.88963 | -80.58117 | 15991 ft | 384 kts | 234° |
| 2026-04-30 19:32 | 25.87307 | -80.60452 | 16064 ft | 388 kts | 234° |
| 2026-04-30 19:33 | 25.85631 | -80.62822 | 16623 ft | 391 kts | 234° |
| 2026-04-30 19:33 | 25.83951 | -80.65195 | 17320 ft | 390 kts | 235° |
| 2026-04-30 19:33 | 25.82267 | -80.67573 | 17914 ft | 393 kts | 235° |
| 2026-04-30 19:33 | 25.80569 | -80.69971 | 18434 ft | 397 kts | 234° |
| 2026-04-30 19:34 | 25.78881 | -80.72414 | 18938 ft | 400 kts | 239° |
| 2026-04-30 19:34 | 25.77745 | -80.75204 | 19411 ft | 397 kts | 256° |
| 2026-04-30 19:34 | 25.76246 | -80.81149 | 20425 ft | 403 kts | 256° |
| 2026-04-30 19:35 | 25.75444 | -80.84145 | 20857 ft | 407 kts | 255° |
| 2026-04-30 19:35 | 25.74623 | -80.87157 | 21302 ft | 410 kts | 255° |
| 2026-04-30 19:35 | 25.73805 | -80.90205 | 21791 ft | 413 kts | 255° |
| 2026-04-30 19:35 | 25.72981 | -80.93216 | 22195 ft | 415 kts | 254° |
| 2026-04-30 19:36 | 25.72121 | -80.96282 | 22489 ft | 418 kts | 255° |
| 2026-04-30 19:36 | 25.71276 | -80.99388 | 22765 ft | 422 kts | 254° |
| 2026-04-30 19:36 | 25.69541 | -81.05610 | 23543 ft | 424 kts | 255° |
| 2026-04-30 19:37 | 25.68692 | -81.08755 | 23881 ft | 426 kts | 255° |
| 2026-04-30 19:37 | 25.67827 | -81.11912 | 24293 ft | 429 kts | 255° |
| 2026-04-30 19:37 | 25.66963 | -81.15092 | 24637 ft | 431 kts | 255° |
| 2026-04-30 19:37 | 25.66091 | -81.18283 | 24965 ft | 433 kts | 255° |
| 2026-04-30 19:38 | 25.65202 | -81.21486 | 25288 ft | 435 kts | 253° |
| 2026-04-30 19:38 | 25.63860 | -81.24513 | 25555 ft | 443 kts | 237° |
| 2026-04-30 19:38 | 25.61775 | -81.27047 | 25854 ft | 449 kts | 225° |
| 2026-04-30 19:38 | 25.59440 | -81.29352 | 26141 ft | 450 kts | 224° |
| 2026-04-30 19:39 | 25.57066 | -81.31641 | 26379 ft | 454 kts | 224° |
| 2026-04-30 19:39 | 25.54675 | -81.33943 | 26647 ft | 457 kts | 224° |
| 2026-04-30 19:39 | 25.52282 | -81.36267 | 26919 ft | 458 kts | 224° |
| 2026-04-30 19:39 | 25.49892 | -81.38608 | 27195 ft | 460 kts | 224° |
| 2026-04-30 19:40 | 25.47499 | -81.40969 | 27456 ft | 462 kts | 224° |
| 2026-04-30 19:40 | 25.45097 | -81.43345 | 27716 ft | 464 kts | 224° |
| 2026-04-30 19:40 | 25.42686 | -81.45733 | 27975 ft | 466 kts | 224° |
| 2026-04-30 19:40 | 25.40270 | -81.48126 | 28247 ft | 467 kts | 224° |
| 2026-04-30 19:41 | 25.37846 | -81.50523 | 28606 ft | 466 kts | 224° |
| 2026-04-30 19:41 | 25.35466 | -81.52875 | 28988 ft | 465 kts | 224° |
| 2026-04-30 19:41 | 25.33058 | -81.55253 | 29343 ft | 464 kts | 224° |
| 2026-04-30 19:41 | 25.30651 | -81.57628 | 29674 ft | 464 kts | 224° |
| 2026-04-30 19:42 | 25.28236 | -81.60010 | 29977 ft | 465 kts | 224° |
| 2026-04-30 19:42 | 25.25816 | -81.62397 | 29966 ft | 469 kts | 224° |
| 2026-04-30 19:42 | 25.20950 | -81.67190 | 29971 ft | 465 kts | 224° |
| 2026-04-30 19:43 | 25.15960 | -81.71713 | 29960 ft | 469 kts | 210° |
| 2026-04-30 19:44 | 25.06613 | -81.75189 | 29989 ft | 474 kts | 199° |
| 2026-04-30 19:44 | 25.00317 | -81.77381 | 29981 ft | 475 kts | 200° |
| 2026-04-30 19:45 | 24.94060 | -81.79616 | 29982 ft | 476 kts | 200° |
| 2026-04-30 19:45 | 24.87754 | -81.81888 | 29982 ft | 476 kts | 200° |
| 2026-04-30 19:46 | 24.81448 | -81.84157 | 29982 ft | 477 kts | 199° |
| 2026-04-30 19:46 | 24.75141 | -81.86421 | 29984 ft | 476 kts | 199° |
| 2026-04-30 19:47 | 24.68833 | -81.88682 | 29980 ft | 476 kts | 199° |
| 2026-04-30 19:47 | 24.62530 | -81.90940 | 29985 ft | 476 kts | 199° |
| 2026-04-30 19:48 | 24.56270 | -81.93180 | 29979 ft | 476 kts | 199° |
| 2026-04-30 19:48 | 24.50083 | -81.95785 | 29961 ft | 475 kts | 215° |
| 2026-04-30 19:48 | 24.47597 | -81.98128 | 29983 ft | 471 kts | 230° |
| 2026-04-30 19:49 | 24.45754 | -82.01079 | 29990 ft | 468 kts | 244° |
| 2026-04-30 19:49 | 24.41586 | -82.10773 | 29976 ft | 469 kts | 246° |
| 2026-04-30 19:50 | 24.38838 | -82.17221 | 29983 ft | 470 kts | 246° |
| 2026-04-30 19:50 | 24.36021 | -82.23692 | 29976 ft | 470 kts | 245° |
| 2026-04-30 19:51 | 24.33175 | -82.30165 | 29971 ft | 471 kts | 245° |
| 2026-04-30 19:51 | 24.30321 | -82.36646 | 29972 ft | 471 kts | 245° |
| 2026-04-30 19:52 | 24.27468 | -82.43115 | 29973 ft | 471 kts | 245° |
| 2026-04-30 19:52 | 24.24613 | -82.49582 | 29978 ft | 471 kts | 245° |
| 2026-04-30 19:53 | 24.21755 | -82.56047 | 29985 ft | 471 kts | 245° |
| 2026-04-30 19:53 | 24.18898 | -82.62509 | 29978 ft | 471 kts | 245° |
| 2026-04-30 19:54 | 24.16040 | -82.68960 | 29971 ft | 470 kts | 245° |
| 2026-04-30 19:54 | 24.13203 | -82.75351 | 29971 ft | 470 kts | 245° |
| 2026-04-30 19:55 | 24.10346 | -82.81785 | 29705 ft | 471 kts | 245° |
| 2026-04-30 19:55 | 24.08901 | -82.85033 | 29220 ft | 465 kts | 245° |
| 2026-04-30 19:55 | 24.07511 | -82.88154 | 28703 ft | 460 kts | 245° |
| 2026-04-30 19:56 | 24.06116 | -82.91286 | 28165 ft | 455 kts | 245° |
| 2026-04-30 19:56 | 24.04740 | -82.94376 | 27632 ft | 450 kts | 246° |
| 2026-04-30 19:56 | 24.03375 | -82.97437 | 27097 ft | 445 kts | 246° |
| 2026-04-30 19:56 | 24.01732 | -83.00289 | 26525 ft | 446 kts | 229° |
| 2026-04-30 19:57 | 23.99331 | -83.02415 | 26027 ft | 446 kts | 212° |
| 2026-04-30 19:57 | 23.96464 | -83.03692 | 25529 ft | 446 kts | 196° |
| 2026-04-30 19:57 | 23.93392 | -83.04117 | 25019 ft | 446 kts | 179° |
| 2026-04-30 19:57 | 23.90314 | -83.03768 | 24560 ft | 443 kts | 174° |
| 2026-04-30 19:58 | 23.87277 | -83.03304 | 24055 ft | 440 kts | 173° |
| 2026-04-30 19:58 | 23.84239 | -83.02818 | 23571 ft | 441 kts | 174° |
| 2026-04-30 19:58 | 23.81188 | -83.02335 | 23083 ft | 443 kts | 174° |
| 2026-04-30 19:58 | 23.78145 | -83.01866 | 22587 ft | 440 kts | 174° |
| 2026-04-30 19:59 | 23.75132 | -83.01414 | 22096 ft | 435 kts | 174° |
| 2026-04-30 19:59 | 23.72147 | -83.00977 | 21628 ft | 431 kts | 174° |
| 2026-04-30 19:59 | 23.66294 | -83.00134 | 20679 ft | 423 kts | 174° |
| 2026-04-30 20:00 | 23.63391 | -82.99718 | 20213 ft | 418 kts | 174° |
| 2026-04-30 20:00 | 23.60517 | -82.99306 | 19744 ft | 414 kts | 174° |
| 2026-04-30 20:00 | 23.57670 | -82.98899 | 19297 ft | 411 kts | 174° |
| 2026-04-30 20:00 | 23.54849 | -82.98496 | 18846 ft | 408 kts | 174° |
| 2026-04-30 20:01 | 23.49258 | -82.97694 | 17949 ft | 402 kts | 173° |
| 2026-04-30 20:01 | 23.46497 | -82.97298 | 17504 ft | 399 kts | 173° |
| 2026-04-30 20:01 | 23.43751 | -82.96904 | 17066 ft | 396 kts | 173° |
| 2026-04-30 20:02 | 23.38311 | -82.96126 | 16178 ft | 391 kts | 173° |
| 2026-04-30 20:02 | 23.35645 | -82.95744 | 15768 ft | 389 kts | 173° |
| 2026-04-30 20:03 | 23.30302 | -82.94978 | 14908 ft | 384 kts | 173° |
| 2026-04-30 20:03 | 23.27660 | -82.94600 | 14480 ft | 382 kts | 173° |
| 2026-04-30 20:03 | 23.25027 | -82.94225 | 14058 ft | 380 kts | 173° |
| 2026-04-30 20:03 | 23.22410 | -82.93852 | 13653 ft | 379 kts | 173° |
| 2026-04-30 20:04 | 23.19798 | -82.93481 | 13239 ft | 377 kts | 173° |
| 2026-04-30 20:04 | 23.17198 | -82.93109 | 12810 ft | 376 kts | 173° |
| 2026-04-30 20:04 | 23.14612 | -82.92740 | 12378 ft | 373 kts | 173° |
| 2026-04-30 20:05 | 23.09538 | -82.92015 | 11580 ft | 363 kts | 172° |
| 2026-04-30 20:05 | 23.07080 | -82.91455 | 11177 ft | 359 kts | 165° |
| 2026-04-30 20:05 | 23.02361 | -82.89844 | 10388 ft | 352 kts | 162° |
| 2026-04-30 20:06 | 23.00029 | -82.89024 | 9906 ft | 351 kts | 162° |
| 2026-04-30 20:06 | 22.97752 | -82.88246 | 9888 ft | 334 kts | 162° |
| 2026-04-30 20:06 | 22.95577 | -82.87519 | 9849 ft | 320 kts | 163° |
| 2026-04-30 20:06 | 22.93511 | -82.86839 | 9765 ft | 309 kts | 163° |
| 2026-04-30 20:07 | 22.91495 | -82.86181 | 9693 ft | 296 kts | 163° |
| 2026-04-30 20:07 | 22.89556 | -82.85547 | 9583 ft | 285 kts | 163° |
| 2026-04-30 20:07 | 22.85797 | -82.84323 | 8815 ft | 282 kts | 163° |
| 2026-04-30 20:08 | 22.83946 | -82.83633 | 8411 ft | 280 kts | 151° |
| 2026-04-30 20:08 | 22.82906 | -82.82779 | 8150 ft | 278 kts | 131° |
| 2026-04-30 20:08 | 22.81984 | -82.81008 | 7789 ft | 274 kts | 105° |
| 2026-04-30 20:08 | 22.81826 | -82.78970 | 7394 ft | 273 kts | 82° |
| 2026-04-30 20:09 | 22.82272 | -82.76977 | 6997 ft | 272 kts | 73° |
| 2026-04-30 20:09 | 22.82829 | -82.75017 | 6596 ft | 273 kts | 73° |
| 2026-04-30 20:09 | 22.83955 | -82.71107 | 6005 ft | 269 kts | 73° |
| 2026-04-30 20:10 | 22.85053 | -82.67233 | 5459 ft | 267 kts | 73° |
| 2026-04-30 20:10 | 22.85586 | -82.65329 | 5309 ft | 260 kts | 73° |
| 2026-04-30 20:10 | 22.86099 | -82.63486 | 5215 ft | 251 kts | 74° |
| 2026-04-30 20:11 | 22.87077 | -82.59954 | 4510 ft | 243 kts | 74° |
| 2026-04-30 20:11 | 22.87586 | -82.58180 | 3782 ft | 249 kts | 69° |
| 2026-04-30 20:11 | 22.88462 | -82.56577 | 3352 ft | 243 kts | 53° |
| 2026-04-30 20:12 | 22.90408 | -82.53748 | 2740 ft | 227 kts | 55° |
| 2026-04-30 20:12 | 22.91312 | -82.52375 | 2428 ft | 218 kts | 56° |
| 2026-04-30 20:12 | 22.92171 | -82.51079 | 2162 ft | 204 kts | 56° |
| 2026-04-30 20:13 | 22.92972 | -82.49871 | 1931 ft | 188 kts | 56° |
| 2026-04-30 20:13 | 22.93708 | -82.48760 | 1678 ft | 174 kts | 55° |
| 2026-04-30 20:13 | 22.94392 | -82.47731 | 1434 ft | 164 kts | 56° |
| 2026-04-30 20:13 | 22.95042 | -82.46743 | 1215 ft | 161 kts | 56° |
| 2026-04-30 20:14 | 22.95690 | -82.45768 | 1009 ft | 159 kts | 56° |
| 2026-04-30 20:14 | 22.96336 | -82.44797 | 801 ft | 159 kts | 56° |
| 2026-04-30 20:14 | 22.96983 | -82.43826 | 618 ft | 160 kts | 55° |
| 2026-04-30 20:14 | 22.97638 | -82.42837 | 367 ft | 162 kts | 55° |
| 2026-04-30 20:15 | 22.98284 | -82.41860 | 221 ft | 151 kts | 54° |
| 2026-04-30 20:15 | 22.98766 | -82.41133 | 221 ft | 71 kts | 54° |
| 2026-04-30 20:15 | 22.98957 | -82.40841 | 214 ft | 31 kts | 55° |
| 2026-04-30 20:15 | 22.99080 | -82.40658 | 215 ft | 29 kts | 53° |
| 2026-04-30 20:16 | 22.99196 | -82.40485 | 214 ft | 27 kts | 52° |
| 2026-04-30 20:16 | 22.99336 | -82.40411 | 215 ft | 23 kts | 9° |
| 2026-04-30 20:16 | 22.99473 | -82.40401 | 222 ft | 17 kts | 343° |
| 2026-04-30 20:16 | 22.99567 | -82.40470 | 219 ft | 16 kts | 315° |
| 2026-04-30 20:17 | 22.99551 | -82.40573 | 218 ft | 15 kts | 236° |
| 2026-04-30 20:17 | 22.99504 | -82.40645 | 215 ft | 11 kts | 233° |
| 2026-04-30 20:17 | 22.99512 | -82.40713 | 219 ft | 11 kts | 321° |
| 2026-04-30 20:17 | 22.99579 | -82.40721 | 221 ft | 11 kts | 26° |
| 2026-04-30 20:18 | 22.99613 | -82.40701 | 215 ft | 1 kts | 30° |